Time;durP1;ratioP1;P1;durP2;ratioP2;P2;SDS_P1;SDS_P2;PMS_P1;PMS_P2;Temp;Humidity;BMP_temperature;BMP_pressure;BME280_temperature;BME280_humidity;BME280_pressure;Samples;Min_cycle;Max_cycle;Signal;HPM_P1;HPM_P2
2022/07/13 00:02:29;;;;;;;2.60;0.80;;;;;;;15.90;60.01;96872.50;108818;1264;22564;-79
2022/07/13 00:05:07;;;;;;;1.40;0.60;;;;;;;15.85;59.97;96866.11;108733;1264;22713;-79
2022/07/13 00:07:42;;;;;;;4.30;1.10;;;;;;;15.84;59.62;96872.98;108765;1264;22539;-79
2022/07/13 00:10:25;;;;;;;1.70;0.80;;;;;;;15.89;59.35;96870.77;108766;1263;24073;-80
2022/07/13 00:12:59;;;;;;;1.80;0.80;;;;;;;15.92;59.05;96868.89;108643;1264;22747;-80
2022/07/13 00:15:34;;;;;;;1.50;0.90;;;;;;;15.97;58.86;96865.91;107042;1264;2054038;-80
2022/07/13 00:18:09;;;;;;;1.50;0.50;;;;;;;16.01;58.71;96865.74;108755;1264;22524;-79
2022/07/13 00:20:48;;;;;;;1.20;0.70;;;;;;;16.02;58.28;96867.91;108749;1264;23258;-80
2022/07/13 00:23:30;;;;;;;1.20;0.60;;;;;;;16.06;58.03;96869.46;108764;1264;22569;-79
2022/07/13 00:26:01;;;;;;;2.20;0.90;;;;;;;16.09;57.83;96869.63;107241;1263;1825894;-79
2022/07/13 00:28:36;;;;;;;0.90;0.50;;;;;;;16.04;58.22;96864.66;108767;1264;22624;-79
2022/07/13 00:31:22;;;;;;;1.60;0.70;;;;;;;15.96;58.12;96864.24;108777;1264;22622;-79
2022/07/13 00:33:58;;;;;;;2.30;0.60;;;;;;;15.96;58.24;96862.58;108754;1264;22544;-79
2022/07/13 00:36:35;;;;;;;1.90;0.80;;;;;;;15.94;58.15;96861.56;108590;1264;84490;-79
2022/07/13 00:39:09;;;;;;;2.20;0.80;;;;;;;15.91;58.13;96856.02;108763;1264;22617;-79
2022/07/13 00:41:49;;;;;;;1.30;0.80;;;;;;;15.89;58.33;96860.16;108775;1264;23313;-79
2022/07/13 00:44:22;;;;;;;2.30;0.80;;;;;;;15.85;58.26;96856.90;108488;1264;22523;-79
2022/07/13 00:46:58;;;;;;;1.80;1.00;;;;;;;15.83;58.41;96850.08;108301;1264;104989;-79
2022/07/13 00:49:38;;;;;;;1.60;0.80;;;;;;;15.82;58.49;96852.61;108535;1264;22545;-79
2022/07/13 00:52:13;;;;;;;1.30;0.60;;;;;;;15.77;58.65;96859.79;108498;1264;22474;-79
2022/07/13 00:54:58;;;;;;;2.90;1.00;;;;;;;15.81;58.60;96859.86;108554;1264;22544;-79
2022/07/13 00:57:38;;;;;;;1.50;0.60;;;;;;;15.86;58.61;96860.91;108348;1264;90360;-79
2022/07/13 01:00:17;;;;;;;1.00;0.60;;;;;;;15.83;58.74;96859.10;108585;1263;23387;-79
2022/07/13 01:02:53;;;;;;;1.40;0.80;;;;;;;15.82;58.83;96851.39;108444;1264;22536;-79
2022/07/13 01:05:34;;;;;;;1.80;0.80;;;;;;;15.83;58.82;96851.93;108405;1264;101029;-79
2022/07/13 01:08:11;;;;;;;1.90;0.90;;;;;;;15.83;58.82;96852.25;108477;1264;22533;-79
2022/07/13 01:10:53;;;;;;;1.20;0.80;;;;;;;15.81;58.92;96846.87;108419;1264;22597;-79
2022/07/13 01:13:30;;;;;;;3.20;0.80;;;;;;;15.79;59.01;96847.20;108482;1264;22555;-79
2022/07/13 01:16:23;;;;;;;1.20;0.60;;;;;;;15.78;59.08;96847.11;108234;1264;131141;-79
2022/07/13 01:19:00;;;;;;;1.70;0.90;;;;;;;15.76;59.05;96848.16;108541;1264;22563;-79
2022/07/13 01:21:38;;;;;;;3.80;0.60;;;;;;;15.76;59.22;96848.33;108487;1264;24350;-79
2022/07/13 01:24:15;;;;;;;1.50;0.80;;;;;;;15.72;59.27;96843.65;108505;1264;23055;-79
2022/07/13 01:27:00;;;;;;;1.00;0.70;;;;;;;15.69;59.33;96847.25;108253;1263;132208;-79
2022/07/13 01:32:21;;;;;;;2.40;0.60;;;;;;;15.62;59.63;96849.03;108494;1264;22561;-79
2022/07/13 01:34:52;;;;;;;1.70;0.70;;;;;;;15.57;59.76;96846.60;108477;1262;22529;-79
2022/07/13 01:37:34;;;;;;;2.30;0.80;;;;;;;15.51;59.94;96843.14;108316;1264;142917;-79
2022/07/13 01:40:07;;;;;;;2.10;1.10;;;;;;;15.47;60.14;96839.04;108573;1264;22539;-79
2022/07/13 01:42:51;;;;;;;3.10;0.90;;;;;;;15.51;60.25;96844.91;108541;1263;22549;-80
2022/07/13 01:45:33;;;;;;;0.80;0.70;;;;;;;15.51;60.32;96846.83;108354;1264;97736;-79
2022/07/13 01:48:05;;;;;;;2.20;0.90;;;;;;;15.49;60.25;96844.03;108649;1264;22556;-80
2022/07/13 01:50:42;;;;;;;2.20;0.80;;;;;;;15.45;60.46;96845.35;108618;1264;22737;-79
2022/07/13 01:53:16;;;;;;;1.30;0.70;;;;;;;15.37;60.61;96849.16;108604;1264;22552;-80
2022/07/13 01:55:47;;;;;;;1.90;0.80;;;;;;;15.33;60.71;96850.15;108375;1264;106835;-80
2022/07/13 01:58:24;;;;;;;1.00;0.60;;;;;;;15.38;60.62;96849.90;108525;1264;22618;-80
2022/07/13 02:00:58;;;;;;;3.10;0.70;;;;;;;15.39;60.66;96849.34;108597;1264;22549;-80
2022/07/13 02:03:34;;;;;;;3.60;1.00;;;;;;;15.35;60.62;96851.04;108540;1264;22531;-78
2022/07/13 02:06:12;;;;;;;2.70;0.90;;;;;;;15.36;60.73;96854.48;106405;1264;2682636;-80
2022/07/13 02:08:46;;;;;;;2.90;0.90;;;;;;;15.34;60.54;96854.48;108637;1264;22536;-80
2022/07/13 02:11:23;;;;;;;1.50;1.00;;;;;;;15.35;60.55;96852.65;108600;1264;23857;-79
2022/07/13 02:13:55;;;;;;;2.60;0.90;;;;;;;15.31;60.64;96849.23;108612;1264;22644;-80
2022/07/13 02:16:30;;;;;;;2.60;0.90;;;;;;;15.22;60.80;96851.91;108191;1264;119629;-79
2022/07/13 02:19:04;;;;;;;3.20;0.90;;;;;;;15.15;61.00;96854.95;108595;1264;22526;-80
2022/07/13 02:21:36;;;;;;;1.60;0.70;;;;;;;15.10;61.13;96852.18;108614;1264;23907;-80
2022/07/13 02:24:10;;;;;;;3.20;0.90;;;;;;;15.05;61.21;96847.95;108609;1264;22550;-80
2022/07/13 02:26:44;;;;;;;1.90;0.90;;;;;;;15.02;61.27;96848.39;108368;1263;75453;-79
2022/07/13 02:29:20;;;;;;;2.00;0.80;;;;;;;15.03;61.32;96847.27;108612;1264;22545;-79
2022/07/13 02:31:56;;;;;;;2.40;0.80;;;;;;;15.05;61.32;96844.92;108610;1264;22548;-79
2022/07/13 02:34:28;;;;;;;2.50;1.10;;;;;;;15.05;61.38;96842.41;108627;1262;22562;-79
2022/07/13 02:37:03;;;;;;;2.70;1.00;;;;;;;14.98;61.38;96839.85;108302;1264;100022;-79
2022/07/13 02:39:36;;;;;;;1.30;0.90;;;;;;;14.89;61.56;96837.95;108601;1264;22661;-79
2022/07/13 02:42:12;;;;;;;3.40;0.90;;;;;;;14.83;61.63;96841.82;108602;1261;23016;-79
2022/07/13 02:44:43;;;;;;;2.40;1.10;;;;;;;14.81;61.67;96845.66;108577;1264;24159;-79
2022/07/13 02:47:24;;;;;;;3.90;1.00;;;;;;;14.79;61.66;96843.58;108112;1264;129551;-79
2022/07/13 02:50:00;;;;;;;2.70;1.30;;;;;;;14.77;61.85;96845.35;108508;1264;22522;-79
2022/07/13 02:52:38;;;;;;;1.80;0.90;;;;;;;14.72;61.94;96845.03;108493;1264;22679;-79
2022/07/13 02:55:11;;;;;;;2.30;1.10;;;;;;;14.65;61.96;96848.17;108498;1264;22523;-79
2022/07/13 02:57:48;;;;;;;0.70;0.60;;;;;;;14.65;62.19;96852.35;108529;1264;25041;-79
2022/07/13 03:00:33;;;;;;;2.80;1.30;;;;;;;14.68;62.51;96852.75;108494;1264;22526;-79
2022/07/13 03:03:08;;;;;;;2.70;1.10;;;;;;;14.69;62.42;96851.63;108476;1264;22730;-79
2022/07/13 03:05:42;;;;;;;2.30;1.30;;;;;;;14.61;62.52;96850.27;108289;1264;97847;-79
2022/07/13 03:08:13;;;;;;;1.50;1.10;;;;;;;14.55;62.67;96850.98;108613;1264;22562;-79
2022/07/13 03:10:48;;;;;;;1.80;0.80;;;;;;;14.52;62.95;96852.61;108491;1264;25451;-79
2022/07/13 03:13:24;;;;;;;2.80;1.10;;;;;;;14.48;63.13;96854.96;108550;1264;22549;-79
2022/07/13 03:16:01;;;;;;;2.20;1.10;;;;;;;14.46;63.24;96861.25;108335;1263;97890;-78
2022/07/13 03:18:41;;;;;;;1.50;1.10;;;;;;;14.41;63.38;96863.81;108489;1264;22529;-79
2022/07/13 03:21:19;;;;;;;2.20;1.10;;;;;;;14.37;63.54;96865.88;108526;1264;25391;-79
2022/07/13 03:23:59;;;;;;;3.70;1.10;;;;;;;14.38;63.57;96867.79;108504;1264;22619;-78
2022/07/13 03:26:31;;;;;;;2.70;1.10;;;;;;;14.38;63.42;96866.41;108209;1264;167700;-78
2022/07/13 03:29:16;;;;;;;1.90;1.10;;;;;;;14.36;63.52;96869.15;108458;1264;25535;-79
2022/07/13 03:31:59;;;;;;;2.90;1.20;;;;;;;14.32;63.81;96871.51;108475;1264;22590;-79
2022/07/13 03:34:30;;;;;;;2.40;1.20;;;;;;;14.31;63.87;96870.67;108484;1264;22537;-79
2022/07/13 03:37:05;;;;;;;2.20;1.30;;;;;;;14.31;63.95;96875.00;106983;1264;1969167;-78
2022/07/13 03:39:42;;;;;;;4.20;1.20;;;;;;;14.31;64.08;96876.16;108514;1264;24351;-78
2022/07/13 03:42:18;;;;;;;4.70;1.30;;;;;;;14.31;64.30;96877.98;108466;1263;22768;-79
2022/07/13 03:44:50;;;;;;;3.20;1.10;;;;;;;14.31;64.55;96883.85;108497;1264;24196;-79
2022/07/13 03:47:33;;;;;;;2.00;1.00;;;;;;;14.31;64.68;96885.55;108404;1264;82016;-78
2022/07/13 03:50:16;;;;;;;2.10;1.30;;;;;;;14.32;64.68;96888.57;108559;1263;25410;-78
2022/07/13 03:52:53;;;;;;;3.70;1.00;;;;;;;14.36;64.82;96891.98;108662;1264;25518;-79
2022/07/13 03:55:41;;;;;;;2.00;0.80;;;;;;;14.41;64.89;96895.94;108406;1264;87749;-78
2022/07/13 03:58:19;;;;;;;1.30;0.90;;;;;;;14.47;64.97;96904.44;108572;1264;22611;-79
2022/07/13 04:00:57;;;;;;;2.20;1.10;;;;;;;14.52;65.35;96899.77;108600;1264;22650;-79
2022/07/13 04:03:33;;;;;;;3.70;1.30;;;;;;;14.57;65.75;96897.17;108599;1264;22551;-79
2022/07/13 04:06:10;;;;;;;3.50;1.40;;;;;;;14.60;66.04;96892.29;104293;1264;5317785;-79
2022/07/13 04:08:46;;;;;;;4.10;1.40;;;;;;;14.63;66.45;96891.42;108433;1264;24246;-78
2022/07/13 04:11:22;;;;;;;4.30;1.40;;;;;;;14.69;66.89;96895.86;108525;1264;22541;-78
2022/07/13 04:13:56;;;;;;;4.30;1.60;;;;;;;14.73;67.30;96893.80;108523;1264;25259;-79
2022/07/13 04:16:27;;;;;;;3.40;1.40;;;;;;;14.76;67.46;96890.85;108255;1264;111783;-79
2022/07/13 04:19:02;;;;;;;2.60;1.40;;;;;;;14.81;67.45;96891.20;108505;1264;23931;-79
2022/07/13 04:21:36;;;;;;;4.00;1.40;;;;;;;14.88;67.57;96896.05;108505;1264;23457;-78
2022/07/13 04:24:12;;;;;;;2.10;1.40;;;;;;;14.95;67.69;96893.09;108507;1264;22646;-78
2022/07/13 04:26:49;;;;;;;3.10;1.50;;;;;;;15.02;68.00;96888.60;108355;1264;92456;-79
2022/07/13 04:29:21;;;;;;;2.90;1.50;;;;;;;15.09;68.28;96887.89;108462;1264;23428;-79
2022/07/13 04:31:58;;;;;;;3.10;1.60;;;;;;;15.16;68.42;96885.52;108524;1264;22535;-79
2022/07/13 04:34:33;;;;;;;2.90;1.50;;;;;;;15.24;68.50;96892.11;108563;1264;22520;-78
2022/07/13 04:37:17;;;;;;;2.30;1.30;;;;;;;15.30;68.58;96887.15;108274;1264;110903;-78
2022/07/13 04:39:51;;;;;;;2.20;1.10;;;;;;;15.37;68.66;96889.02;108484;1264;22513;-79
2022/07/13 04:42:24;;;;;;;2.00;1.20;;;;;;;15.41;68.63;96892.42;108529;1264;22545;-78
2022/07/13 04:45:06;;;;;;;2.60;1.60;;;;;;;15.44;68.78;96896.48;108368;1264;22552;-79
2022/07/13 04:47:43;;;;;;;2.60;1.30;;;;;;;15.54;69.09;96895.64;108493;1264;22551;-79
2022/07/13 04:50:23;;;;;;;1.70;1.20;;;;;;;15.71;69.10;96889.82;108530;1264;22523;-78
2022/07/13 04:53:00;;;;;;;2.60;1.00;;;;;;;15.84;68.89;96887.51;108467;1264;26020;-78
2022/07/13 04:55:34;;;;;;;1.90;1.20;;;;;;;15.94;68.83;96890.19;108334;1264;97994;-79
2022/07/13 04:58:14;;;;;;;3.20;1.30;;;;;;;16.00;68.66;96880.21;108606;1264;22648;-79
2022/07/13 05:01:00;;;;;;;1.90;1.00;;;;;;;16.16;68.69;96881.75;108566;1264;22520;-78
2022/07/13 05:03:36;;;;;;;1.20;0.90;;;;;;;16.34;68.49;96881.33;108582;1264;22549;-79
2022/07/13 05:06:17;;;;;;;2.00;1.20;;;;;;;16.45;67.99;96879.20;108385;1264;115719;-79
2022/07/13 05:08:48;;;;;;;2.50;1.20;;;;;;;16.50;68.01;96880.27;108606;1264;22539;-79
2022/07/13 05:11:24;;;;;;;2.70;1.10;;;;;;;16.67;68.20;96880.86;108557;1264;22874;-78
2022/07/13 05:14:01;;;;;;;3.30;1.20;;;;;;;16.96;67.48;96886.00;108602;1264;22533;-79
2022/07/13 05:16:34;;;;;;;2.30;1.20;;;;;;;17.39;67.47;96884.10;108342;1264;81923;-79
2022/07/13 05:19:11;;;;;;;2.30;1.60;;;;;;;18.63;66.44;96882.76;108540;1264;22697;-79
2022/07/13 05:21:48;;;;;;;1.80;1.10;;;;;;;20.81;62.50;96888.44;108533;1264;25246;-79
2022/07/13 05:24:26;;;;;;;2.30;1.20;;;;;;;23.08;60.48;96888.80;108499;1264;22529;-79
2022/07/13 05:27:04;;;;;;;2.50;1.20;;;;;;;25.05;54.62;96885.24;108322;1264;87115;-79
2022/07/13 05:29:38;;;;;;;3.10;1.10;;;;;;;26.48;53.00;96884.65;108509;1264;22656;-80
2022/07/13 05:32:15;;;;;;;2.20;0.90;;;;;;;27.62;50.18;96883.05;108487;1264;24223;-79
2022/07/13 05:34:46;;;;;;;1.60;0.90;;;;;;;28.71;45.43;96880.63;108495;1264;22546;-79
2022/07/13 05:37:23;;;;;;;2.60;1.30;;;;;;;27.96;42.40;96882.42;108177;1264;110845;-79
2022/07/13 05:40:00;;;;;;;2.40;1.00;;;;;;;27.67;41.77;96887.70;108724;1264;24703;-80
2022/07/13 05:42:36;;;;;;;2.00;0.90;;;;;;;27.29;41.14;96895.57;108777;1263;22660;-80
2022/07/13 05:45:11;;;;;;;2.90;1.00;;;;;;;27.05;40.48;96891.37;108589;1264;101430;-80
2022/07/13 05:47:51;;;;;;;1.40;0.70;;;;;;;26.73;40.69;96889.87;108813;1264;25464;-80
2022/07/13 05:50:28;;;;;;;1.70;0.90;;;;;;;27.11;41.65;96892.34;108830;1264;22526;-80
2022/07/13 05:53:03;;;;;;;3.50;1.50;;;;;;;28.22;41.65;96891.04;108869;1263;22566;-80
2022/07/13 05:55:37;;;;;;;2.40;1.60;;;;;;;28.80;38.21;96886.72;108575;1264;98163;-79
2022/07/13 05:58:17;;;;;;;6.30;1.00;;;;;;;28.18;39.03;96886.07;108901;1264;25941;-79
2022/07/13 06:00:54;;;;;;;2.60;0.90;;;;;;;28.84;38.41;96887.89;108841;1264;22519;-80
2022/07/13 06:03:28;;;;;;;1.00;0.80;;;;;;;28.68;38.47;96886.39;108846;1264;23855;-80
2022/07/13 06:06:00;;;;;;;2.20;1.10;;;;;;;29.58;38.11;96891.26;108558;1262;119428;-80
2022/07/13 06:08:37;;;;;;;1.90;1.80;;;;;;;29.45;35.65;96888.58;108739;1264;23836;-80
2022/07/13 06:11:14;;;;;;;1.50;0.80;;;;;;;28.53;36.18;96888.40;108758;1264;22549;-78
2022/07/13 06:13:49;;;;;;;2.20;1.00;;;;;;;28.60;36.25;96882.56;108462;1264;23878;-78
2022/07/13 06:16:24;;;;;;;1.10;0.90;;;;;;;28.67;37.18;96887.70;108303;1264;131448;-78
2022/07/13 06:19:02;;;;;;;1.70;0.90;;;;;;;28.88;36.01;96884.84;108572;1264;24021;-78
2022/07/13 06:21:40;;;;;;;1.00;0.80;;;;;;;28.61;36.82;96882.64;108502;1264;22548;-79
2022/07/13 06:24:14;;;;;;;3.60;3.40;;;;;;;28.65;35.18;96883.73;108522;1264;24220;-81
2022/07/13 06:26:48;;;;;;;1.90;0.70;;;;;;;27.53;36.60;96883.42;108458;1264;97144;-78
2022/07/13 06:29:28;;;;;;;1.60;0.70;;;;;;;27.46;37.30;96880.34;108599;1264;22555;-81
2022/07/13 06:32:11;;;;;;;2.20;0.60;;;;;;;27.99;37.86;96882.36;108857;1264;22487;-81
2022/07/13 06:34:50;;;;;;;1.10;0.70;;;;;;;28.48;35.49;96865.55;108814;1264;24192;-80
2022/07/13 06:37:24;;;;;;;1.70;0.80;;;;;;;28.26;36.76;96870.05;108629;1263;104102;-81
2022/07/13 06:39:57;;;;;;;1.70;0.90;;;;;;;28.30;36.24;96867.66;108805;1264;22649;-81
2022/07/13 06:42:32;;;;;;;2.50;1.00;;;;;;;28.12;36.30;96864.48;108853;1264;24233;-80
2022/07/13 06:45:09;;;;;;;1.70;0.80;;;;;;;28.35;36.87;96869.38;108826;1264;22565;-81
2022/07/13 06:47:50;;;;;;;2.70;0.60;;;;;;;28.35;35.85;96870.38;108841;1263;24145;-80
2022/07/13 06:50:28;;;;;;;1.30;0.80;;;;;;;28.45;36.05;96864.33;108822;1264;22534;-78
2022/07/13 06:53:08;;;;;;;2.40;2.20;;;;;;;28.14;35.97;96860.60;108760;1264;22643;-79
2022/07/13 06:55:46;;;;;;;2.80;1.00;;;;;;;27.67;37.14;96869.48;108360;1264;80755;-78
2022/07/13 06:58:24;;;;;;;2.50;0.70;;;;;;;28.17;36.79;96866.13;108488;1264;22521;-79
2022/07/13 07:01:01;;;;;;;2.70;2.50;;;;;;;28.21;36.32;96866.77;108468;1264;23755;-80
2022/07/13 07:03:42;;;;;;;1.50;0.70;;;;;;;27.62;36.56;96869.76;108561;1264;22744;-79
2022/07/13 07:06:19;;;;;;;1.50;1.10;;;;;;;28.06;37.19;96869.77;108275;1264;105352;-78
2022/07/13 07:08:56;;;;;;;1.70;1.20;;;;;;;28.67;35.85;96870.73;108547;1264;22522;-78
2022/07/13 07:11:28;;;;;;;3.10;1.50;;;;;;;28.90;35.81;96870.56;108490;1264;22532;-79
2022/07/13 07:14:18;;;;;;;2.30;2.10;;;;;;;28.80;35.36;96875.80;108559;1264;22555;-79
2022/07/13 07:16:56;;;;;;;1.70;0.90;;;;;;;28.45;36.01;96874.14;108096;1264;150027;-79
2022/07/13 07:19:27;;;;;;;3.00;2.60;;;;;;;28.63;34.93;96874.60;108562;1264;22525;-79
2022/07/13 07:22:03;;;;;;;1.20;0.90;;;;;;;27.86;35.86;96874.92;108502;1264;22503;-78
2022/07/13 07:24:43;;;;;;;1.40;0.70;;;;;;;27.84;36.75;96879.13;108531;1264;22622;-79
2022/07/13 07:27:22;;;;;;;2.90;2.60;;;;;;;28.03;35.81;96875.98;108483;1264;134667;-79
2022/07/13 07:29:54;;;;;;;0.90;0.70;;;;;;;27.81;36.21;96876.93;108509;1264;22534;-78
2022/07/13 07:32:29;;;;;;;1.60;0.80;;;;;;;28.12;35.51;96865.41;108473;1264;22533;-80
2022/07/13 07:35:06;;;;;;;4.00;0.70;;;;;;;28.61;35.57;96865.19;108752;1264;22548;-81
2022/07/13 07:37:42;;;;;;;1.90;1.00;;;;;;;29.27;35.10;96878.47;108757;1264;22552;-82
2022/07/13 07:40:18;;;;;;;3.10;1.10;;;;;;;28.17;35.37;96874.00;108779;1264;22684;-79
2022/07/13 07:42:56;;;;;;;3.10;2.90;;;;;;;28.45;35.40;96875.61;108504;1264;22521;-79
2022/07/13 07:45:34;;;;;;;1.50;1.10;;;;;;;27.93;35.60;96870.81;107179;1264;1650752;-81
2022/07/13 07:48:10;;;;;;;1.70;0.90;;;;;;;27.19;37.00;96889.25;108834;1264;25452;-80
2022/07/13 07:50:45;;;;;;;1.40;0.70;;;;;;;26.57;38.65;96883.74;108869;1264;26730;-78
2022/07/13 07:53:17;;;;;;;1.20;0.70;;;;;;;27.04;37.28;96883.27;108602;1264;22887;-80
2022/07/13 07:55:51;;;;;;;7.30;6.80;;;;;;;25.37;38.72;96884.08;108669;1264;120729;-81
2022/07/13 07:58:25;;;;;;;1.10;1.00;;;;;;;24.98;40.88;96887.48;108819;1264;24236;-81
2022/07/13 08:00:56;;;;;;;2.30;0.90;;;;;;;26.61;39.26;96889.98;108839;1264;22598;-79
2022/07/13 08:03:34;;;;;;;3.50;0.80;;;;;;;28.07;38.63;96886.86;108548;1264;22555;-81
2022/07/13 08:06:11;;;;;;;1.00;0.80;;;;;;;29.51;36.48;96898.65;108536;1264;90729;-79
2022/07/13 08:08:54;;;;;;;2.70;0.60;;;;;;;29.79;36.00;96895.33;108592;1264;22549;-79
2022/07/13 08:11:28;;;;;;;2.10;1.00;;;;;;;28.48;34.79;96895.73;108592;1264;23274;-78
2022/07/13 08:14:06;;;;;;;1.10;0.80;;;;;;;27.19;36.87;96914.31;108562;1264;22597;-79
2022/07/13 08:16:43;;;;;;;1.00;0.80;;;;;;;26.26;38.54;96908.61;108436;1264;71332;-78
2022/07/13 08:19:19;;;;;;;0.70;0.60;;;;;;;27.35;38.17;96905.92;108558;1264;22902;-80
2022/07/13 08:21:57;;;;;;;1.50;0.80;;;;;;;28.83;36.14;96894.49;108837;1264;25004;-80
2022/07/13 08:24:31;;;;;;;1.10;0.80;;;;;;;27.19;35.93;96899.99;108814;1264;22536;-78
2022/07/13 08:27:03;;;;;;;1.90;0.80;;;;;;;26.19;38.93;96907.77;108285;1264;111366;-80
2022/07/13 08:29:43;;;;;;;1.10;0.80;;;;;;;27.16;38.33;96904.95;108696;1264;22532;-78
2022/07/13 08:32:15;;;;;;;1.10;0.80;;;;;;;28.12;36.87;96899.39;108469;1264;23525;-80
2022/07/13 08:40:51;;;;;;;1.50;0.80;;;;;;;27.27;39.34;96895.36;108716;1264;22525;-80
2022/07/13 08:43:26;;;;;;;2.40;0.80;;;;;;;28.97;37.60;96894.33;108719;1264;22548;-80
2022/07/13 08:46:03;;;;;;;0.90;0.80;;;;;;;30.08;34.67;96894.91;107208;1264;1866873;-78
2022/07/13 08:48:51;;;;;;;1.90;1.10;;;;;;;29.56;34.32;96892.26;108473;1264;25326;-78
2022/07/13 08:51:26;;;;;;;1.10;0.80;;;;;;;28.22;36.21;96887.55;108518;1264;22535;-78
2022/07/13 08:53:58;;;;;;;1.70;0.90;;;;;;;29.38;35.93;96893.73;108489;1264;22550;-81
2022/07/13 08:56:33;;;;;;;3.00;0.80;;;;;;;28.63;34.93;96899.95;108533;1264;110046;-80
2022/07/13 08:59:07;;;;;;;2.20;1.00;;;;;;;27.98;37.32;96904.86;108802;1264;22659;-78
2022/07/13 09:01:43;;;;;;;1.40;1.00;;;;;;;28.69;36.02;96893.02;108477;1264;25245;-80
2022/07/13 09:04:18;;;;;;;1.40;0.80;;;;;;;27.76;36.53;96883.96;108783;1264;25300;-81
2022/07/13 09:06:58;;;;;;;1.60;1.10;;;;;;;25.93;38.61;96883.59;108695;1264;66312;-79
2022/07/13 09:09:33;;;;;;;;;;;;;;;24.33;41.48;96886.09;108819;1264;26573;-80
2022/07/13 09:12:20;;;;;;;1.80;1.10;;;;;;;23.51;43.60;96881.65;108817;1264;22607;-80
2022/07/13 09:15:07;;;;;;;1.20;0.80;;;;;;;23.12;45.08;96880.11;108822;1264;22520;-80
2022/07/13 09:17:47;;;;;;;1.50;0.90;;;;;;;23.10;45.46;96882.08;108832;1264;22520;-80
2022/07/13 09:20:28;;;;;;;1.10;1.00;;;;;;;23.00;46.33;96874.12;108813;1264;22695;-80
2022/07/13 09:23:01;;;;;;;2.30;1.30;;;;;;;22.85;46.87;96876.79;108842;1264;22543;-80
2022/07/13 09:25:44;;;;;;;3.70;1.20;;;;;;;22.55;47.11;96879.23;108606;1264;98308;-79
2022/07/13 09:28:16;;;;;;;1.80;1.20;;;;;;;22.50;48.28;96876.70;108829;1264;23845;-80
2022/07/13 09:30:52;;;;;;;2.20;1.30;;;;;;;22.76;48.40;96873.39;108834;1264;22711;-79
2022/07/13 09:33:45;;;;;;;2.00;1.00;;;;;;;22.83;47.77;96872.10;108812;1264;22547;-80
2022/07/13 09:36:26;;;;;;;3.30;1.00;;;;;;;22.58;47.96;96863.98;108596;1264;101052;-80
2022/07/13 09:39:09;;;;;;;2.30;1.20;;;;;;;22.24;47.98;96866.94;108749;1264;22523;-80
2022/07/13 09:41:45;;;;;;;1.90;1.20;;;;;;;22.09;48.63;96863.02;108787;1264;22547;-80
2022/07/13 09:47:14;;;;;;;1.40;0.90;;;;;;;22.40;47.60;96881.55;108215;1264;107865;-80
2022/07/13 09:49:59;;;;;;;2.10;0.90;;;;;;;22.29;48.09;96879.11;108487;1264;22555;-80
2022/07/13 09:52:43;;;;;;;0.90;0.70;;;;;;;22.38;47.55;96876.42;108766;1264;23361;-80
2022/07/13 09:55:21;;;;;;;2.10;0.70;;;;;;;22.41;47.90;96885.80;108473;1264;126624;-80
2022/07/13 09:58:10;;;;;;;1.00;0.70;;;;;;;22.32;47.36;96891.00;108829;1264;22556;-81
2022/07/13 10:00:52;;;;;;;1.00;0.80;;;;;;;22.18;46.79;96891.09;108807;1264;22570;-80
2022/07/13 10:03:33;;;;;;;3.20;0.80;;;;;;;22.15;47.35;96890.71;108547;1264;24373;-79
2022/07/13 10:06:13;;;;;;;2.00;0.70;;;;;;;22.25;47.53;96888.58;106808;1264;2182534;-79
2022/07/13 10:08:54;;;;;;;2.10;0.90;;;;;;;22.19;47.57;96903.00;108531;1265;22653;-79
2022/07/13 10:11:26;;;;;;;;;;;;;;;22.50;47.68;96896.77;108647;1265;22511;-79
2022/07/13 10:14:04;;;;;;;1.50;0.90;;;;;;;22.62;46.33;96889.26;108597;1265;23837;-79
2022/07/13 10:16:45;;;;;;;2.00;0.80;;;;;;;22.65;46.88;96877.68;108251;1265;141344;-79
2022/07/13 10:19:19;;;;;;;3.10;1.10;;;;;;;22.75;47.34;96882.77;108510;1265;22605;-79
2022/07/13 10:22:06;;;;;;;1.50;0.90;;;;;;;22.62;47.53;96887.17;108532;1265;22538;-79
2022/07/13 10:24:51;;;;;;;1.80;0.80;;;;;;;22.46;47.82;96892.18;108489;1265;24179;-80
2022/07/13 10:27:36;;;;;;;3.90;1.00;;;;;;;22.47;46.90;96894.45;108390;1264;96382;-80
2022/07/13 10:30:24;;;;;;;1.20;0.80;;;;;;;22.61;47.31;96891.23;108494;1265;22549;-79
2022/07/13 10:33:19;;;;;;;1.10;0.70;;;;;;;22.67;46.53;96885.91;108819;1265;22550;-79
2022/07/13 10:35:59;;;;;;;3.00;0.80;;;;;;;22.40;46.83;96877.38;106460;1265;2998590;-80
2022/07/13 10:38:39;;;;;;;1.70;0.90;;;;;;;22.47;46.62;96879.41;108757;1264;25455;-79
2022/07/13 10:41:26;;;;;;;2.20;1.00;;;;;;;22.70;46.77;96876.95;108797;1265;22544;-79
2022/07/13 10:44:28;;;;;;;2.10;0.70;;;;;;;22.76;46.60;96876.31;108492;1265;22692;-79
2022/07/13 10:47:13;;;;;;;1.10;0.70;;;;;;;22.64;46.55;96868.94;108278;1265;150008;-79
2022/07/13 10:49:48;;;;;;;1.20;1.10;;;;;;;22.64;46.64;96858.12;108530;1265;22753;-79
2022/07/13 10:52:54;;;;;;;1.50;0.90;;;;;;;22.96;47.77;96872.70;108544;1265;23658;-78
2022/07/13 10:55:35;;;;;;;3.20;0.70;;;;;;;23.52;46.07;96878.71;108272;1265;164080;-79
2022/07/13 10:58:49;;;;;;;1.30;0.70;;;;;;;23.62;44.03;96865.50;108556;1265;23757;-79
2022/07/13 11:01:54;;;;;;;1.60;0.80;;;;;;;23.24;43.60;96874.18;108145;1264;563351;-79
2022/07/13 11:05:00;;;;;;;1.50;1.00;;;;;;;22.99;43.92;96870.02;108739;1265;22541;-78
2022/07/13 11:07:47;;;;;;;1.20;0.90;;;;;;;23.06;44.72;96865.75;108492;1265;94939;-79
2022/07/13 11:10:27;;;;;;;1.40;0.80;;;;;;;23.11;45.42;96869.64;108530;1265;23750;-78
2022/07/13 11:13:09;;;;;;;6.30;0.70;;;;;;;23.21;46.17;96877.75;108540;1265;23917;-78
2022/07/13 11:15:54;;;;;;;1.50;1.10;;;;;;;23.21;45.85;96880.06;108326;1265;94038;-79
2022/07/13 11:18:36;;;;;;;1.60;0.70;;;;;;;23.23;45.28;96884.83;108524;1264;22539;-79
2022/07/13 11:21:23;;;;;;;1.50;0.80;;;;;;;23.38;45.17;96899.60;108460;1263;26564;-79
2022/07/13 11:27:12;;;;;;;1.80;0.80;;;;;;;23.50;43.78;96885.99;108263;1265;102214;-78
2022/07/13 11:30:02;;;;;;;2.20;0.80;;;;;;;23.57;44.49;96891.13;108459;1265;22671;-78
2022/07/13 11:32:38;;;;;;;4.80;1.40;;;;;;;23.62;44.09;96887.39;108528;1265;24256;-79
2022/07/13 11:35:16;;;;;;;1.10;0.80;;;;;;;23.56;44.00;96894.35;108205;1265;103983;-78
2022/07/13 11:37:59;;;;;;;4.70;0.80;;;;;;;23.58;43.85;96878.86;108544;1265;25793;-79
2022/07/13 11:40:36;;;;;;;2.60;0.90;;;;;;;23.59;44.00;96885.45;108497;1265;22527;-78
2022/07/13 11:43:12;;;;;;;2.10;1.10;;;;;;;23.71;43.94;96879.21;108469;1265;22550;-78
2022/07/13 11:45:48;;;;;;;1.40;0.80;;;;;;;23.84;43.88;96876.36;108283;1265;91071;-78
2022/07/13 11:48:35;;;;;;;1.40;0.60;;;;;;;23.94;43.45;96870.91;108580;1263;27087;-78
2022/07/13 11:51:21;;;;;;;0.90;0.60;;;;;;;24.01;44.59;96867.55;108576;1265;22567;-79
2022/07/13 11:53:55;;;;;;;1.70;0.70;;;;;;;24.16;43.61;96860.30;108554;1265;22526;-79
2022/07/13 11:56:30;;;;;;;1.40;0.80;;;;;;;24.05;42.75;96856.39;105065;1265;4490263;-78
2022/07/13 11:59:04;;;;;;;0.70;0.70;;;;;;;24.05;43.48;96859.96;108559;1265;22650;-78
2022/07/13 12:01:39;;;;;;;4.00;1.00;;;;;;;23.96;43.15;96862.90;108550;1265;22737;-79
2022/07/13 12:04:36;;;;;;;0.80;0.60;;;;;;;23.64;43.98;96859.58;108559;1265;25251;-78
2022/07/13 12:07:14;;;;;;;1.80;1.00;;;;;;;23.59;43.68;96857.45;108278;1263;135824;-78
2022/07/13 12:09:59;;;;;;;2.80;1.30;;;;;;;23.67;44.25;96861.64;108549;1262;25275;-79
2022/07/13 12:12:41;;;;;;;1.10;0.70;;;;;;;23.90;44.55;96850.10;108563;1265;22810;-77
2022/07/13 12:15:15;;;;;;;1.80;1.10;;;;;;;24.19;44.45;96845.20;108371;1265;92171;-78
2022/07/13 12:17:51;;;;;;;3.10;1.00;;;;;;;24.35;43.47;96844.89;108488;1264;22534;-77
2022/07/13 12:20:27;;;;;;;1.90;1.20;;;;;;;24.37;43.71;96862.04;108542;1265;24320;-77
2022/07/13 12:23:17;;;;;;;1.90;1.20;;;;;;;24.48;43.03;96861.28;108581;1264;24192;-77
2022/07/13 12:26:07;;;;;;;1.10;0.90;;;;;;;24.51;42.70;96859.47;108377;1263;94771;-77
2022/07/13 12:28:44;;;;;;;3.00;1.00;;;;;;;24.32;42.93;96861.61;108567;1265;27122;-76
2022/07/13 12:31:22;;;;;;;1.00;0.90;;;;;;;24.39;43.78;96869.95;108520;1265;22541;-77